Hlavní strana
METAR-TAF:

METAR-TAF

Letiště :

Mezinárodní letiště Dubaj

Dubaj, Spojené arabské emiráty

zeměpisná šířka: 25-15-10N, zeměpisná délka: 055-21-52E, výška: 8 m

Aktuální stav počasí

Zpráva byla vytvořena před 13 minutami, v 03:00 UTC
vítr z různých směrů 1 kt
Teplota 26°C
Vlhkost vzduchu 42%
Tlak 1012 hPa
Viditelnost 10 km a více
Žádná oblačnost pod 1500 m, nevyskytují se cumulonimby.

METAR: OMDB 040300Z VRB01KT CAVOK 26/12 Q1012 NOSIG

Čas: 07:13 (03:13 UTC)

Předpověď počasí

Zpráva byla vytvořena před 4 hodinami a 11 minutami, v 23:02 UTC
Předpověď platná od 04 v 00 UTC do 05 v 06 UTC
Východojihovýchodní vítr 5 kt
Viditelnost: 8000 m
Změna
od 04 v 04 UTC do 04 v 06 UTC
Jižní vítr 12 kt
Změna
od 04 v 08 UTC do 04 v 10 UTC
Severozápadní vítr 12 kt
Změna
od 04 v 15 UTC do 04 v 17 UTC
Východojihovýchodní vítr 5 kt

TAF: OMDB 032302Z 0400/0506 11005KT 8000 NSC BECMG 0404/0406 18012KT BECMG 0408/0410 31012KT BECMG 0415/0417 11005KT

Stav a předpovědi počasí z více než 4 000 letišť (zprávy METAR a TAF).

Červené a žluté tečky na mapě představují dostupné meteorologické stanice.

Když kurzor umístíte na tečku, zobrazí se název stanice.

Pak kliknutím zobrazíte stav a předpověď počasí.

Chcete-li změnit mapu, kliknutím na zelené tlačítko se znaménkem +mapu přiblížíte, kliknutím na zelené tlačítko se znaménkem – mapu oddálíte a kliknutím na zelené šipky přejdete na sousední mapy.


METAR-TAF: